sensor_id;sensor_type;location;lat;lon;timestamp;P1;durP1;ratioP1;P2;durP2;ratioP2
7573;SDS011;3828;48.922;9.116;2023-03-01T00:00:54;1.77;;;1.77;;
7573;SDS011;3828;48.922;9.116;2023-03-01T00:03:20;1.80;;;1.80;;
7573;SDS011;3828;48.922;9.116;2023-03-01T00:05:48;1.87;;;1.87;;
7573;SDS011;3828;48.922;9.116;2023-03-01T00:08:15;1.70;;;1.70;;
7573;SDS011;3828;48.922;9.116;2023-03-01T00:10:42;2.00;;;2.00;;
7573;SDS011;3828;48.922;9.116;2023-03-01T00:13:10;1.63;;;1.63;;
7573;SDS011;3828;48.922;9.116;2023-03-01T00:15:38;1.30;;;1.30;;
7573;SDS011;3828;48.922;9.116;2023-03-01T00:18:09;1.70;;;1.70;;
7573;SDS011;3828;48.922;9.116;2023-03-01T00:20:36;1.70;;;1.70;;
7573;SDS011;3828;48.922;9.116;2023-03-01T00:23:04;1.87;;;1.87;;
7573;SDS011;3828;48.922;9.116;2023-03-01T00:25:31;1.70;;;1.70;;
7573;SDS011;3828;48.922;9.116;2023-03-01T00:27:57;1.87;;;1.87;;
7573;SDS011;3828;48.922;9.116;2023-03-01T00:30:26;2.03;;;2.03;;
7573;SDS011;3828;48.922;9.116;2023-03-01T00:32:53;1.47;;;1.47;;
7573;SDS011;3828;48.922;9.116;2023-03-01T00:35:20;1.60;;;1.60;;
7573;SDS011;3828;48.922;9.116;2023-03-01T00:37:47;1.80;;;1.80;;
7573;SDS011;3828;48.922;9.116;2023-03-01T00:40:18;1.50;;;1.50;;
7573;SDS011;3828;48.922;9.116;2023-03-01T00:42:45;1.67;;;1.67;;
7573;SDS011;3828;48.922;9.116;2023-03-01T00:45:11;1.97;;;1.97;;
7573;SDS011;3828;48.922;9.116;2023-03-01T00:47:40;2.00;;;2.00;;
7573;SDS011;3828;48.922;9.116;2023-03-01T00:50:07;1.93;;;1.93;;
7573;SDS011;3828;48.922;9.116;2023-03-01T00:52:35;2.10;;;2.10;;
7573;SDS011;3828;48.922;9.116;2023-03-01T00:55:02;1.90;;;1.90;;
7573;SDS011;3828;48.922;9.116;2023-03-01T00:57:29;1.60;;;1.60;;
7573;SDS011;3828;48.922;9.116;2023-03-01T00:59:57;1.60;;;1.60;;
7573;SDS011;3828;48.922;9.116;2023-03-01T01:02:24;1.60;;;1.60;;
7573;SDS011;3828;48.922;9.116;2023-03-01T01:04:52;1.57;;;1.57;;
7573;SDS011;3828;48.922;9.116;2023-03-01T01:07:19;1.67;;;1.67;;
7573;SDS011;3828;48.922;9.116;2023-03-01T01:09:46;1.70;;;1.70;;
7573;SDS011;3828;48.922;9.116;2023-03-01T01:12:13;1.87;;;1.87;;
7573;SDS011;3828;48.922;9.116;2023-03-01T01:14:39;1.70;;;1.70;;
7573;SDS011;3828;48.922;9.116;2023-03-01T01:17:07;1.80;;;1.80;;
7573;SDS011;3828;48.922;9.116;2023-03-01T01:19:35;1.80;;;1.80;;
7573;SDS011;3828;48.922;9.116;2023-03-01T01:22:03;1.70;;;1.70;;
7573;SDS011;3828;48.922;9.116;2023-03-01T01:24:30;1.80;;;1.80;;
7573;SDS011;3828;48.922;9.116;2023-03-01T01:26:57;1.80;;;1.80;;
7573;SDS011;3828;48.922;9.116;2023-03-01T01:29:23;1.70;;;1.70;;
7573;SDS011;3828;48.922;9.116;2023-03-01T01:31:50;2.20;;;2.20;;
7573;SDS011;3828;48.922;9.116;2023-03-01T01:34:18;2.00;;;2.00;;
7573;SDS011;3828;48.922;9.116;2023-03-01T01:36:47;1.60;;;1.60;;
7573;SDS011;3828;48.922;9.116;2023-03-01T01:39:15;1.60;;;1.60;;
7573;SDS011;3828;48.922;9.116;2023-03-01T01:41:43;1.80;;;1.80;;
7573;SDS011;3828;48.922;9.116;2023-03-01T01:44:11;1.80;;;1.80;;
7573;SDS011;3828;48.922;9.116;2023-03-01T01:46:41;1.97;;;1.97;;
7573;SDS011;3828;48.922;9.116;2023-03-01T01:49:12;1.97;;;1.97;;
7573;SDS011;3828;48.922;9.116;2023-03-01T01:51:48;1.80;;;1.80;;
7573;SDS011;3828;48.922;9.116;2023-03-01T01:54:22;1.70;;;1.70;;
7573;SDS011;3828;48.922;9.116;2023-03-01T01:56:52;1.87;;;1.87;;
7573;SDS011;3828;48.922;9.116;2023-03-01T01:59:22;1.40;;;1.40;;
7573;SDS011;3828;48.922;9.116;2023-03-01T02:01:50;1.47;;;1.47;;
7573;SDS011;3828;48.922;9.116;2023-03-01T02:04:17;1.50;;;1.50;;
7573;SDS011;3828;48.922;9.116;2023-03-01T02:06:44;1.63;;;1.63;;
7573;SDS011;3828;48.922;9.116;2023-03-01T02:09:16;1.57;;;1.57;;
7573;SDS011;3828;48.922;9.116;2023-03-01T02:11:45;1.83;;;1.83;;
7573;SDS011;3828;48.922;9.116;2023-03-01T02:14:14;2.10;;;2.10;;
7573;SDS011;3828;48.922;9.116;2023-03-01T02:16:41;1.80;;;1.80;;
7573;SDS011;3828;48.922;9.116;2023-03-01T02:19:08;1.60;;;1.60;;
7573;SDS011;3828;48.922;9.116;2023-03-01T02:21:46;1.90;;;1.90;;
7573;SDS011;3828;48.922;9.116;2023-03-01T02:24:26;1.80;;;1.80;;
7573;SDS011;3828;48.922;9.116;2023-03-01T02:27:02;1.90;;;1.90;;
7573;SDS011;3828;48.922;9.116;2023-03-01T02:29:32;1.93;;;1.93;;
7573;SDS011;3828;48.922;9.116;2023-03-01T02:31:59;2.07;;;2.07;;
7573;SDS011;3828;48.922;9.116;2023-03-01T02:34:27;1.87;;;1.87;;
7573;SDS011;3828;48.922;9.116;2023-03-01T02:36:57;1.80;;;1.80;;
7573;SDS011;3828;48.922;9.116;2023-03-01T02:39:30;2.00;;;2.00;;
7573;SDS011;3828;48.922;9.116;2023-03-01T02:42:00;1.87;;;1.87;;
7573;SDS011;3828;48.922;9.116;2023-03-01T02:44:28;1.80;;;1.80;;
7573;SDS011;3828;48.922;9.116;2023-03-01T02:46:57;1.60;;;1.60;;
7573;SDS011;3828;48.922;9.116;2023-03-01T02:49:29;1.90;;;1.90;;
7573;SDS011;3828;48.922;9.116;2023-03-01T02:52:04;1.63;;;1.63;;
7573;SDS011;3828;48.922;9.116;2023-03-01T02:54:44;1.50;;;1.50;;
7573;SDS011;3828;48.922;9.116;2023-03-01T02:57:15;1.93;;;1.93;;
7573;SDS011;3828;48.922;9.116;2023-03-01T02:59:42;1.77;;;1.77;;
7573;SDS011;3828;48.922;9.116;2023-03-01T03:02:19;1.90;;;1.90;;
7573;SDS011;3828;48.922;9.116;2023-03-01T03:05:01;1.80;;;1.80;;
7573;SDS011;3828;48.922;9.116;2023-03-01T03:07:31;1.50;;;1.50;;
7573;SDS011;3828;48.922;9.116;2023-03-01T03:09:58;1.93;;;1.93;;
7573;SDS011;3828;48.922;9.116;2023-03-01T03:12:25;1.63;;;1.63;;
7573;SDS011;3828;48.922;9.116;2023-03-01T03:14:52;1.80;;;1.80;;
7573;SDS011;3828;48.922;9.116;2023-03-01T03:17:20;1.70;;;1.70;;
7573;SDS011;3828;48.922;9.116;2023-03-01T03:19:47;1.90;;;1.90;;
7573;SDS011;3828;48.922;9.116;2023-03-01T03:22:14;2.20;;;2.20;;
7573;SDS011;3828;48.922;9.116;2023-03-01T03:24:41;1.80;;;1.80;;
7573;SDS011;3828;48.922;9.116;2023-03-01T03:27:08;1.70;;;1.70;;
7573;SDS011;3828;48.922;9.116;2023-03-01T03:29:35;1.40;;;1.40;;
7573;SDS011;3828;48.922;9.116;2023-03-01T03:32:02;1.60;;;1.60;;
7573;SDS011;3828;48.922;9.116;2023-03-01T03:34:30;1.50;;;1.50;;
7573;SDS011;3828;48.922;9.116;2023-03-01T03:36:57;1.80;;;1.80;;
7573;SDS011;3828;48.922;9.116;2023-03-01T03:39:24;2.00;;;2.00;;
7573;SDS011;3828;48.922;9.116;2023-03-01T03:41:52;1.90;;;1.90;;
7573;SDS011;3828;48.922;9.116;2023-03-01T03:44:19;1.67;;;1.67;;
7573;SDS011;3828;48.922;9.116;2023-03-01T03:46:46;1.73;;;1.73;;
7573;SDS011;3828;48.922;9.116;2023-03-01T03:49:13;1.60;;;1.60;;
7573;SDS011;3828;48.922;9.116;2023-03-01T03:51:42;1.57;;;1.57;;
7573;SDS011;3828;48.922;9.116;2023-03-01T03:54:11;1.57;;;1.57;;
7573;SDS011;3828;48.922;9.116;2023-03-01T03:56:38;1.50;;;1.50;;
7573;SDS011;3828;48.922;9.116;2023-03-01T03:59:04;1.70;;;1.70;;
7573;SDS011;3828;48.922;9.116;2023-03-01T04:01:31;1.70;;;1.70;;
7573;SDS011;3828;48.922;9.116;2023-03-01T04:03:58;1.67;;;1.67;;
7573;SDS011;3828;48.922;9.116;2023-03-01T04:06:29;1.63;;;1.63;;
7573;SDS011;3828;48.922;9.116;2023-03-01T04:08:57;1.90;;;1.90;;
7573;SDS011;3828;48.922;9.116;2023-03-01T04:11:25;1.77;;;1.77;;
7573;SDS011;3828;48.922;9.116;2023-03-01T04:13:53;1.80;;;1.80;;
7573;SDS011;3828;48.922;9.116;2023-03-01T04:16:21;1.60;;;1.60;;
7573;SDS011;3828;48.922;9.116;2023-03-01T04:18:48;1.87;;;1.87;;
7573;SDS011;3828;48.922;9.116;2023-03-01T04:21:15;1.80;;;1.80;;
7573;SDS011;3828;48.922;9.116;2023-03-01T04:23:45;1.40;;;1.40;;
7573;SDS011;3828;48.922;9.116;2023-03-01T04:26:13;1.33;;;1.33;;
7573;SDS011;3828;48.922;9.116;2023-03-01T04:28:41;1.80;;;1.80;;
7573;SDS011;3828;48.922;9.116;2023-03-01T04:31:11;1.73;;;1.73;;
7573;SDS011;3828;48.922;9.116;2023-03-01T04:33:39;1.57;;;1.57;;
7573;SDS011;3828;48.922;9.116;2023-03-01T04:36:07;1.77;;;1.77;;
7573;SDS011;3828;48.922;9.116;2023-03-01T04:38:35;1.63;;;1.63;;
7573;SDS011;3828;48.922;9.116;2023-03-01T04:41:03;1.80;;;1.80;;
7573;SDS011;3828;48.922;9.116;2023-03-01T04:43:31;1.70;;;1.70;;
7573;SDS011;3828;48.922;9.116;2023-03-01T04:46:02;1.60;;;1.60;;
7573;SDS011;3828;48.922;9.116;2023-03-01T04:48:31;1.90;;;1.90;;
7573;SDS011;3828;48.922;9.116;2023-03-01T04:50:58;1.70;;;1.70;;
7573;SDS011;3828;48.922;9.116;2023-03-01T04:53:26;1.70;;;1.70;;
7573;SDS011;3828;48.922;9.116;2023-03-01T04:55:54;2.00;;;2.00;;
7573;SDS011;3828;48.922;9.116;2023-03-01T04:58:21;1.60;;;1.60;;
7573;SDS011;3828;48.922;9.116;2023-03-01T05:00:50;1.70;;;1.70;;
7573;SDS011;3828;48.922;9.116;2023-03-01T05:03:18;1.70;;;1.70;;
7573;SDS011;3828;48.922;9.116;2023-03-01T05:05:45;1.90;;;1.90;;
7573;SDS011;3828;48.922;9.116;2023-03-01T05:08:13;1.40;;;1.40;;
7573;SDS011;3828;48.922;9.116;2023-03-01T05:10:43;1.73;;;1.73;;
7573;SDS011;3828;48.922;9.116;2023-03-01T05:13:12;1.67;;;1.67;;
7573;SDS011;3828;48.922;9.116;2023-03-01T05:15:40;1.90;;;1.90;;
7573;SDS011;3828;48.922;9.116;2023-03-01T05:18:09;1.60;;;1.60;;
7573;SDS011;3828;48.922;9.116;2023-03-01T05:20:36;1.70;;;1.70;;
7573;SDS011;3828;48.922;9.116;2023-03-01T05:23:04;1.80;;;1.80;;
7573;SDS011;3828;48.922;9.116;2023-03-01T05:25:31;1.70;;;1.70;;
7573;SDS011;3828;48.922;9.116;2023-03-01T05:27:59;1.87;;;1.87;;
7573;SDS011;3828;48.922;9.116;2023-03-01T05:30:29;1.90;;;1.90;;
7573;SDS011;3828;48.922;9.116;2023-03-01T05:32:57;1.87;;;1.87;;
7573;SDS011;3828;48.922;9.116;2023-03-01T05:35:26;1.57;;;1.57;;
7573;SDS011;3828;48.922;9.116;2023-03-01T05:37:54;1.90;;;1.90;;
7573;SDS011;3828;48.922;9.116;2023-03-01T05:40:22;1.53;;;1.53;;
7573;SDS011;3828;48.922;9.116;2023-03-01T05:42:51;1.90;;;1.90;;
7573;SDS011;3828;48.922;9.116;2023-03-01T05:45:19;2.00;;;2.00;;
7573;SDS011;3828;48.922;9.116;2023-03-01T05:47:47;1.90;;;1.90;;
7573;SDS011;3828;48.922;9.116;2023-03-01T05:50:16;1.73;;;1.73;;
7573;SDS011;3828;48.922;9.116;2023-03-01T05:52:46;1.80;;;1.80;;
7573;SDS011;3828;48.922;9.116;2023-03-01T05:55:18;1.80;;;1.80;;
7573;SDS011;3828;48.922;9.116;2023-03-01T05:57:47;1.70;;;1.70;;
7573;SDS011;3828;48.922;9.116;2023-03-01T06:00:15;2.20;;;2.20;;
7573;SDS011;3828;48.922;9.116;2023-03-01T06:02:47;1.87;;;1.87;;
7573;SDS011;3828;48.922;9.116;2023-03-01T06:05:14;1.97;;;1.97;;
7573;SDS011;3828;48.922;9.116;2023-03-01T06:07:41;1.93;;;1.93;;
7573;SDS011;3828;48.922;9.116;2023-03-01T06:10:11;2.00;;;2.00;;
7573;SDS011;3828;48.922;9.116;2023-03-01T06:12:39;1.77;;;1.77;;
7573;SDS011;3828;48.922;9.116;2023-03-01T06:15:07;1.87;;;1.87;;
7573;SDS011;3828;48.922;9.116;2023-03-01T06:17:36;2.10;;;2.10;;
7573;SDS011;3828;48.922;9.116;2023-03-01T06:20:04;1.83;;;1.83;;
7573;SDS011;3828;48.922;9.116;2023-03-01T06:22:33;1.63;;;1.63;;
7573;SDS011;3828;48.922;9.116;2023-03-01T06:25:00;1.40;;;1.40;;
7573;SDS011;3828;48.922;9.116;2023-03-01T06:27:28;1.80;;;1.80;;
7573;SDS011;3828;48.922;9.116;2023-03-01T06:29:55;1.80;;;1.80;;
7573;SDS011;3828;48.922;9.116;2023-03-01T06:32:22;1.90;;;1.90;;
7573;SDS011;3828;48.922;9.116;2023-03-01T06:34:49;1.70;;;1.70;;
7573;SDS011;3828;48.922;9.116;2023-03-01T06:37:16;1.80;;;1.80;;
7573;SDS011;3828;48.922;9.116;2023-03-01T06:39:43;1.90;;;1.90;;
7573;SDS011;3828;48.922;9.116;2023-03-01T06:42:10;1.70;;;1.70;;
7573;SDS011;3828;48.922;9.116;2023-03-01T06:44:38;1.77;;;1.77;;
7573;SDS011;3828;48.922;9.116;2023-03-01T06:47:04;1.73;;;1.73;;
7573;SDS011;3828;48.922;9.116;2023-03-01T06:49:31;1.60;;;1.60;;
7573;SDS011;3828;48.922;9.116;2023-03-01T06:51:58;1.80;;;1.80;;
7573;SDS011;3828;48.922;9.116;2023-03-01T06:54:25;1.70;;;1.70;;
7573;SDS011;3828;48.922;9.116;2023-03-01T06:56:52;1.90;;;1.90;;
7573;SDS011;3828;48.922;9.116;2023-03-01T06:59:19;1.80;;;1.80;;
7573;SDS011;3828;48.922;9.116;2023-03-01T07:01:47;1.77;;;1.77;;
7573;SDS011;3828;48.922;9.116;2023-03-01T07:04:14;1.63;;;1.63;;
7573;SDS011;3828;48.922;9.116;2023-03-01T07:06:41;1.90;;;1.90;;
7573;SDS011;3828;48.922;9.116;2023-03-01T07:09:08;1.60;;;1.60;;
7573;SDS011;3828;48.922;9.116;2023-03-01T07:11:37;1.70;;;1.70;;
7573;SDS011;3828;48.922;9.116;2023-03-01T07:14:09;1.70;;;1.70;;
7573;SDS011;3828;48.922;9.116;2023-03-01T07:16:37;1.57;;;1.57;;
7573;SDS011;3828;48.922;9.116;2023-03-01T07:19:13;1.50;;;1.50;;
7573;SDS011;3828;48.922;9.116;2023-03-01T07:21:41;1.60;;;1.60;;
7573;SDS011;3828;48.922;9.116;2023-03-01T07:24:12;1.50;;;1.50;;
7573;SDS011;3828;48.922;9.116;2023-03-01T07:26:47;1.50;;;1.50;;
7573;SDS011;3828;48.922;9.116;2023-03-01T07:29:20;1.60;;;1.60;;
7573;SDS011;3828;48.922;9.116;2023-03-01T07:31:48;1.40;;;1.40;;
7573;SDS011;3828;48.922;9.116;2023-03-01T07:34:19;1.53;;;1.53;;
7573;SDS011;3828;48.922;9.116;2023-03-01T07:36:54;1.57;;;1.57;;
7573;SDS011;3828;48.922;9.116;2023-03-01T07:39:27;1.47;;;1.47;;
7573;SDS011;3828;48.922;9.116;2023-03-01T07:41:59;1.40;;;1.40;;
7573;SDS011;3828;48.922;9.116;2023-03-01T07:44:30;1.70;;;1.70;;
7573;SDS011;3828;48.922;9.116;2023-03-01T07:47:03;1.30;;;1.30;;
7573;SDS011;3828;48.922;9.116;2023-03-01T07:49:34;1.23;;;1.23;;
7573;SDS011;3828;48.922;9.116;2023-03-01T07:52:06;1.40;;;1.40;;
7573;SDS011;3828;48.922;9.116;2023-03-01T07:54:37;1.50;;;1.50;;
7573;SDS011;3828;48.922;9.116;2023-03-01T07:57:12;1.40;;;1.40;;
7573;SDS011;3828;48.922;9.116;2023-03-01T07:59:41;1.37;;;1.37;;
7573;SDS011;3828;48.922;9.116;2023-03-01T08:02:12;1.40;;;1.40;;
7573;SDS011;3828;48.922;9.116;2023-03-01T08:04:43;1.20;;;1.20;;
7573;SDS011;3828;48.922;9.116;2023-03-01T08:07:23;1.50;;;1.50;;
7573;SDS011;3828;48.922;9.116;2023-03-01T08:09:50;1.20;;;1.20;;
7573;SDS011;3828;48.922;9.116;2023-03-01T08:12:22;1.30;;;1.30;;
7573;SDS011;3828;48.922;9.116;2023-03-01T08:14:54;1.37;;;1.37;;
7573;SDS011;3828;48.922;9.116;2023-03-01T08:17:22;1.30;;;1.30;;
7573;SDS011;3828;48.922;9.116;2023-03-01T08:19:52;1.10;;;1.10;;
7573;SDS011;3828;48.922;9.116;2023-03-01T08:22:21;1.23;;;1.23;;
7573;SDS011;3828;48.922;9.116;2023-03-01T08:24:53;1.20;;;1.20;;
7573;SDS011;3828;48.922;9.116;2023-03-01T08:27:27;1.20;;;1.20;;
7573;SDS011;3828;48.922;9.116;2023-03-01T08:29:55;0.77;;;0.77;;
7573;SDS011;3828;48.922;9.116;2023-03-01T08:32:34;1.10;;;1.10;;
7573;SDS011;3828;48.922;9.116;2023-03-01T08:35:05;1.10;;;1.10;;
7573;SDS011;3828;48.922;9.116;2023-03-01T08:37:35;1.20;;;1.20;;
7573;SDS011;3828;48.922;9.116;2023-03-01T08:40:09;0.90;;;0.90;;
7573;SDS011;3828;48.922;9.116;2023-03-01T08:42:42;1.23;;;1.23;;
7573;SDS011;3828;48.922;9.116;2023-03-01T08:45:13;1.33;;;1.33;;
7573;SDS011;3828;48.922;9.116;2023-03-01T08:47:43;1.10;;;1.10;;
7573;SDS011;3828;48.922;9.116;2023-03-01T08:50:20;1.10;;;1.10;;
7573;SDS011;3828;48.922;9.116;2023-03-01T08:52:49;1.00;;;1.00;;
7573;SDS011;3828;48.922;9.116;2023-03-01T08:55:19;0.90;;;0.90;;
7573;SDS011;3828;48.922;9.116;2023-03-01T08:57:47;0.90;;;0.90;;
7573;SDS011;3828;48.922;9.116;2023-03-01T09:00:28;1.00;;;1.00;;
7573;SDS011;3828;48.922;9.116;2023-03-01T09:02:59;1.00;;;1.00;;
7573;SDS011;3828;48.922;9.116;2023-03-01T09:05:28;0.90;;;0.90;;
7573;SDS011;3828;48.922;9.116;2023-03-01T09:07:57;1.00;;;1.00;;
7573;SDS011;3828;48.922;9.116;2023-03-01T09:10:24;0.90;;;0.90;;
7573;SDS011;3828;48.922;9.116;2023-03-01T09:12:51;0.90;;;0.90;;
7573;SDS011;3828;48.922;9.116;2023-03-01T09:15:18;1.00;;;1.00;;
7573;SDS011;3828;48.922;9.116;2023-03-01T09:17:45;0.90;;;0.90;;
7573;SDS011;3828;48.922;9.116;2023-03-01T09:20:13;1.10;;;1.10;;
7573;SDS011;3828;48.922;9.116;2023-03-01T09:22:41;1.00;;;1.00;;
7573;SDS011;3828;48.922;9.116;2023-03-01T09:25:08;1.00;;;1.00;;
7573;SDS011;3828;48.922;9.116;2023-03-01T09:27:35;0.90;;;0.90;;
7573;SDS011;3828;48.922;9.116;2023-03-01T09:30:03;0.90;;;0.90;;
7573;SDS011;3828;48.922;9.116;2023-03-01T09:32:30;1.03;;;1.03;;
7573;SDS011;3828;48.922;9.116;2023-03-01T09:34:57;1.23;;;1.23;;
7573;SDS011;3828;48.922;9.116;2023-03-01T09:37:29;1.10;;;1.10;;
7573;SDS011;3828;48.922;9.116;2023-03-01T09:39:58;1.13;;;1.13;;
7573;SDS011;3828;48.922;9.116;2023-03-01T09:42:25;1.13;;;1.13;;
7573;SDS011;3828;48.922;9.116;2023-03-01T09:44:54;1.00;;;1.00;;
7573;SDS011;3828;48.922;9.116;2023-03-01T09:47:26;1.10;;;1.10;;
7573;SDS011;3828;48.922;9.116;2023-03-01T09:49:57;1.10;;;1.10;;
7573;SDS011;3828;48.922;9.116;2023-03-01T09:52:33;1.10;;;1.10;;
7573;SDS011;3828;48.922;9.116;2023-03-01T09:55:09;1.20;;;1.20;;
7573;SDS011;3828;48.922;9.116;2023-03-01T09:57:40;1.10;;;1.10;;
7573;SDS011;3828;48.922;9.116;2023-03-01T10:00:20;1.03;;;1.03;;
7573;SDS011;3828;48.922;9.116;2023-03-01T10:02:56;0.90;;;0.90;;
7573;SDS011;3828;48.922;9.116;2023-03-01T10:05:37;1.20;;;1.20;;
7573;SDS011;3828;48.922;9.116;2023-03-01T10:08:24;0.80;;;0.80;;
7573;SDS011;3828;48.922;9.116;2023-03-01T10:10:57;1.00;;;1.00;;
7573;SDS011;3828;48.922;9.116;2023-03-01T10:13:26;0.77;;;0.77;;
7573;SDS011;3828;48.922;9.116;2023-03-01T10:15:59;1.00;;;1.00;;
7573;SDS011;3828;48.922;9.116;2023-03-01T10:18:35;0.80;;;0.80;;
7573;SDS011;3828;48.922;9.116;2023-03-01T10:21:07;0.80;;;0.80;;
7573;SDS011;3828;48.922;9.116;2023-03-01T10:23:39;1.40;;;1.40;;
7573;SDS011;3828;48.922;9.116;2023-03-01T10:26:15;0.80;;;0.80;;
7573;SDS011;3828;48.922;9.116;2023-03-01T10:29:01;0.90;;;0.90;;
7573;SDS011;3828;48.922;9.116;2023-03-01T10:31:34;0.80;;;0.80;;
7573;SDS011;3828;48.922;9.116;2023-03-01T10:34:08;1.30;;;1.30;;
7573;SDS011;3828;48.922;9.116;2023-03-01T10:36:39;0.80;;;0.80;;
7573;SDS011;3828;48.922;9.116;2023-03-01T10:39:11;1.37;;;1.37;;
7573;SDS011;3828;48.922;9.116;2023-03-01T10:41:58;0.70;;;0.70;;
7573;SDS011;3828;48.922;9.116;2023-03-01T10:44:40;0.90;;;0.90;;
7573;SDS011;3828;48.922;9.116;2023-03-01T10:47:15;0.70;;;0.70;;
7573;SDS011;3828;48.922;9.116;2023-03-01T10:49:52;1.10;;;1.10;;
7573;SDS011;3828;48.922;9.116;2023-03-01T10:52:24;0.50;;;0.50;;
7573;SDS011;3828;48.922;9.116;2023-03-01T10:54:53;1.10;;;1.10;;
7573;SDS011;3828;48.922;9.116;2023-03-01T10:57:29;0.60;;;0.60;;
7573;SDS011;3828;48.922;9.116;2023-03-01T11:00:02;0.80;;;0.80;;
7573;SDS011;3828;48.922;9.116;2023-03-01T11:02:43;0.60;;;0.60;;
7573;SDS011;3828;48.922;9.116;2023-03-01T11:05:16;0.60;;;0.60;;
7573;SDS011;3828;48.922;9.116;2023-03-01T11:07:48;0.70;;;0.70;;
7573;SDS011;3828;48.922;9.116;2023-03-01T11:10:17;0.60;;;0.60;;
7573;SDS011;3828;48.922;9.116;2023-03-01T11:12:46;0.60;;;0.60;;
7573;SDS011;3828;48.922;9.116;2023-03-01T11:15:20;0.70;;;0.70;;
7573;SDS011;3828;48.922;9.116;2023-03-01T11:17:50;0.53;;;0.53;;
7573;SDS011;3828;48.922;9.116;2023-03-01T11:20:20;0.50;;;0.50;;
7573;SDS011;3828;48.922;9.116;2023-03-01T11:22:53;0.50;;;0.50;;
7573;SDS011;3828;48.922;9.116;2023-03-01T11:25:23;0.50;;;0.50;;
7573;SDS011;3828;48.922;9.116;2023-03-01T11:27:53;0.80;;;0.80;;
7573;SDS011;3828;48.922;9.116;2023-03-01T11:30:23;0.60;;;0.60;;
7573;SDS011;3828;48.922;9.116;2023-03-01T11:32:56;0.70;;;0.70;;
7573;SDS011;3828;48.922;9.116;2023-03-01T11:35:30;0.40;;;0.40;;
7573;SDS011;3828;48.922;9.116;2023-03-01T11:38:03;0.70;;;0.70;;
7573;SDS011;3828;48.922;9.116;2023-03-01T11:40:42;0.60;;;0.60;;
7573;SDS011;3828;48.922;9.116;2023-03-01T11:43:15;0.70;;;0.70;;
7573;SDS011;3828;48.922;9.116;2023-03-01T11:45:53;0.70;;;0.70;;
7573;SDS011;3828;48.922;9.116;2023-03-01T11:48:46;0.60;;;0.60;;
7573;SDS011;3828;48.922;9.116;2023-03-01T11:51:21;0.70;;;0.70;;
7573;SDS011;3828;48.922;9.116;2023-03-01T11:53:58;0.70;;;0.70;;
7573;SDS011;3828;48.922;9.116;2023-03-01T11:56:34;0.50;;;0.50;;
7573;SDS011;3828;48.922;9.116;2023-03-01T11:59:19;1.23;;;1.23;;
7573;SDS011;3828;48.922;9.116;2023-03-01T12:02:12;1.10;;;1.10;;
7573;SDS011;3828;48.922;9.116;2023-03-01T12:05:02;0.50;;;0.50;;
7573;SDS011;3828;48.922;9.116;2023-03-01T12:07:42;0.70;;;0.70;;
7573;SDS011;3828;48.922;9.116;2023-03-01T12:10:19;1.00;;;1.00;;
7573;SDS011;3828;48.922;9.116;2023-03-01T12:12:58;0.80;;;0.80;;
7573;SDS011;3828;48.922;9.116;2023-03-01T12:15:44;0.63;;;0.63;;
7573;SDS011;3828;48.922;9.116;2023-03-01T12:21:22;0.40;;;0.40;;
7573;SDS011;3828;48.922;9.116;2023-03-01T12:24:14;0.50;;;0.50;;
7573;SDS011;3828;48.922;9.116;2023-03-01T12:27:08;0.63;;;0.63;;
7573;SDS011;3828;48.922;9.116;2023-03-01T12:29:49;0.80;;;0.80;;
7573;SDS011;3828;48.922;9.116;2023-03-01T12:32:26;0.80;;;0.80;;
7573;SDS011;3828;48.922;9.116;2023-03-01T12:35:11;0.60;;;0.60;;
7573;SDS011;3828;48.922;9.116;2023-03-01T12:37:53;0.50;;;0.50;;
7573;SDS011;3828;48.922;9.116;2023-03-01T12:40:32;0.47;;;0.47;;
7573;SDS011;3828;48.922;9.116;2023-03-01T12:43:11;1.07;;;1.07;;
7573;SDS011;3828;48.922;9.116;2023-03-01T12:45:50;0.50;;;0.50;;
7573;SDS011;3828;48.922;9.116;2023-03-01T12:48:34;0.60;;;0.60;;
7573;SDS011;3828;48.922;9.116;2023-03-01T12:51:10;0.50;;;0.50;;
7573;SDS011;3828;48.922;9.116;2023-03-01T12:53:41;0.70;;;0.70;;
7573;SDS011;3828;48.922;9.116;2023-03-01T12:56:11;0.80;;;0.80;;
7573;SDS011;3828;48.922;9.116;2023-03-01T12:58:46;0.97;;;0.97;;
7573;SDS011;3828;48.922;9.116;2023-03-01T13:01:25;0.70;;;0.70;;
7573;SDS011;3828;48.922;9.116;2023-03-01T13:07:07;0.90;;;0.90;;
7573;SDS011;3828;48.922;9.116;2023-03-01T13:09:43;0.60;;;0.60;;
7573;SDS011;3828;48.922;9.116;2023-03-01T13:15:33;0.93;;;0.93;;
7573;SDS011;3828;48.922;9.116;2023-03-01T13:18:02;0.70;;;0.70;;
7573;SDS011;3828;48.922;9.116;2023-03-01T13:20:33;0.80;;;0.80;;
7573;SDS011;3828;48.922;9.116;2023-03-01T13:23:12;0.60;;;0.60;;
7573;SDS011;3828;48.922;9.116;2023-03-01T13:26:00;0.70;;;0.70;;
7573;SDS011;3828;48.922;9.116;2023-03-01T13:28:39;1.20;;;1.20;;
7573;SDS011;3828;48.922;9.116;2023-03-01T13:31:55;0.60;;;0.60;;
7573;SDS011;3828;48.922;9.116;2023-03-01T13:34:42;0.90;;;0.90;;
7573;SDS011;3828;48.922;9.116;2023-03-01T13:37:20;0.83;;;0.83;;
7573;SDS011;3828;48.922;9.116;2023-03-01T13:39:58;0.60;;;0.60;;
7573;SDS011;3828;48.922;9.116;2023-03-01T13:42:35;0.80;;;0.80;;
7573;SDS011;3828;48.922;9.116;2023-03-01T13:45:05;1.00;;;1.00;;
7573;SDS011;3828;48.922;9.116;2023-03-01T13:47:48;0.80;;;0.80;;
7573;SDS011;3828;48.922;9.116;2023-03-01T13:50:20;0.60;;;0.60;;
7573;SDS011;3828;48.922;9.116;2023-03-01T13:52:56;0.77;;;0.77;;
7573;SDS011;3828;48.922;9.116;2023-03-01T13:55:27;0.57;;;0.57;;
7573;SDS011;3828;48.922;9.116;2023-03-01T13:58:02;0.50;;;0.50;;
7573;SDS011;3828;48.922;9.116;2023-03-01T14:01:03;0.50;;;0.50;;
7573;SDS011;3828;48.922;9.116;2023-03-01T14:03:31;0.77;;;0.77;;
7573;SDS011;3828;48.922;9.116;2023-03-01T14:06:01;0.50;;;0.50;;
7573;SDS011;3828;48.922;9.116;2023-03-01T14:08:33;0.70;;;0.70;;
7573;SDS011;3828;48.922;9.116;2023-03-01T14:11:09;0.93;;;0.93;;
7573;SDS011;3828;48.922;9.116;2023-03-01T14:14:03;0.67;;;0.67;;
7573;SDS011;3828;48.922;9.116;2023-03-01T14:16:39;0.67;;;0.67;;
7573;SDS011;3828;48.922;9.116;2023-03-01T14:19:14;1.07;;;1.07;;
7573;SDS011;3828;48.922;9.116;2023-03-01T14:21:45;0.60;;;0.60;;
7573;SDS011;3828;48.922;9.116;2023-03-01T14:24:18;0.70;;;0.70;;
7573;SDS011;3828;48.922;9.116;2023-03-01T14:26:48;0.90;;;0.90;;
7573;SDS011;3828;48.922;9.116;2023-03-01T14:29:26;0.70;;;0.70;;
7573;SDS011;3828;48.922;9.116;2023-03-01T14:31:53;0.70;;;0.70;;
7573;SDS011;3828;48.922;9.116;2023-03-01T14:34:21;0.70;;;0.70;;
7573;SDS011;3828;48.922;9.116;2023-03-01T14:36:49;0.80;;;0.80;;
7573;SDS011;3828;48.922;9.116;2023-03-01T14:39:18;0.70;;;0.70;;
7573;SDS011;3828;48.922;9.116;2023-03-01T14:41:46;0.77;;;0.77;;
7573;SDS011;3828;48.922;9.116;2023-03-01T14:44:14;0.80;;;0.80;;
7573;SDS011;3828;48.922;9.116;2023-03-01T14:46:44;0.73;;;0.73;;
7573;SDS011;3828;48.922;9.116;2023-03-01T14:49:12;0.70;;;0.70;;
7573;SDS011;3828;48.922;9.116;2023-03-01T14:51:42;0.80;;;0.80;;
7573;SDS011;3828;48.922;9.116;2023-03-01T14:54:20;0.70;;;0.70;;
7573;SDS011;3828;48.922;9.116;2023-03-01T14:56:50;0.83;;;0.83;;
7573;SDS011;3828;48.922;9.116;2023-03-01T14:59:19;0.70;;;0.70;;
7573;SDS011;3828;48.922;9.116;2023-03-01T15:01:48;0.77;;;0.77;;
7573;SDS011;3828;48.922;9.116;2023-03-01T15:04:15;0.80;;;0.80;;
7573;SDS011;3828;48.922;9.116;2023-03-01T15:06:43;0.63;;;0.63;;
7573;SDS011;3828;48.922;9.116;2023-03-01T15:09:12;0.70;;;0.70;;
7573;SDS011;3828;48.922;9.116;2023-03-01T15:11:43;0.87;;;0.87;;
7573;SDS011;3828;48.922;9.116;2023-03-01T15:14:26;0.80;;;0.80;;
7573;SDS011;3828;48.922;9.116;2023-03-01T15:16:54;1.03;;;1.03;;
7573;SDS011;3828;48.922;9.116;2023-03-01T15:19:22;0.70;;;0.70;;
7573;SDS011;3828;48.922;9.116;2023-03-01T15:21:53;1.17;;;1.17;;
7573;SDS011;3828;48.922;9.116;2023-03-01T15:24:22;0.90;;;0.90;;
7573;SDS011;3828;48.922;9.116;2023-03-01T15:26:56;0.90;;;0.90;;
7573;SDS011;3828;48.922;9.116;2023-03-01T15:29:27;0.70;;;0.70;;
7573;SDS011;3828;48.922;9.116;2023-03-01T15:31:59;0.80;;;0.80;;
7573;SDS011;3828;48.922;9.116;2023-03-01T15:34:29;0.90;;;0.90;;
7573;SDS011;3828;48.922;9.116;2023-03-01T15:36:57;0.90;;;0.90;;
7573;SDS011;3828;48.922;9.116;2023-03-01T15:39:36;1.00;;;1.00;;
7573;SDS011;3828;48.922;9.116;2023-03-01T15:42:07;1.10;;;1.10;;
7573;SDS011;3828;48.922;9.116;2023-03-01T15:44:36;0.77;;;0.77;;
7573;SDS011;3828;48.922;9.116;2023-03-01T15:47:08;0.80;;;0.80;;
7573;SDS011;3828;48.922;9.116;2023-03-01T15:49:52;0.90;;;0.90;;